createdAt,value
2023-02-05T00:00:28.405Z,3.20
2023-02-05T00:02:58.261Z,3.30
2023-02-05T00:05:28.106Z,3.20
2023-02-05T00:07:57.922Z,3.10
2023-02-05T00:10:27.676Z,3.10
2023-02-05T00:13:00.015Z,3.10
2023-02-05T00:15:29.867Z,3.00
2023-02-05T00:17:59.655Z,3.00
2023-02-05T00:20:29.388Z,3.00
2023-02-05T00:22:59.386Z,3.10
2023-02-05T00:25:29.235Z,3.10
2023-02-05T00:28:02.428Z,3.10
2023-02-05T00:30:32.471Z,3.00
2023-02-05T00:33:02.273Z,3.00
2023-02-05T00:35:32.542Z,3.10
2023-02-05T00:38:02.641Z,3.10
2023-02-05T00:40:32.438Z,3.00
2023-02-05T00:43:04.796Z,3.00
2023-02-05T00:45:35.689Z,3.00
2023-02-05T00:48:06.084Z,3.00
2023-02-05T00:50:36.708Z,3.10
2023-02-05T00:53:06.588Z,3.00
2023-02-05T00:55:36.493Z,3.10
2023-02-05T00:58:08.891Z,3.20
2023-02-05T01:00:38.644Z,3.20
2023-02-05T01:03:08.613Z,3.20
2023-02-05T01:05:39.360Z,3.20
2023-02-05T01:08:10.539Z,3.10
2023-02-05T01:10:40.458Z,3.00
2023-02-05T01:13:12.831Z,3.10
2023-02-05T01:15:45.158Z,3.10
2023-02-05T01:18:15.566Z,3.00
2023-02-05T01:20:45.866Z,3.00
2023-02-05T01:23:15.669Z,3.00
2023-02-05T01:25:45.980Z,3.00
2023-02-05T01:28:18.648Z,2.90
2023-02-05T01:30:50.808Z,2.80
2023-02-05T01:33:20.746Z,2.90
2023-02-05T01:35:50.560Z,2.90
2023-02-05T01:38:20.375Z,2.90
2023-02-05T01:40:50.166Z,3.00
2023-02-05T01:43:22.740Z,3.00
2023-02-05T01:46:09.669Z,2.90
2023-02-05T01:48:44.878Z,3.00
2023-02-05T01:51:18.278Z,3.00
2023-02-05T01:53:50.625Z,2.90
2023-02-05T01:56:24.002Z,3.00
2023-02-05T01:59:01.199Z,3.10
2023-02-05T02:01:32.109Z,3.10
2023-02-05T02:04:05.589Z,3.00
2023-02-05T02:06:36.679Z,2.90
2023-02-05T02:09:08.920Z,3.00
2023-02-05T02:11:40.828Z,2.90
2023-02-05T02:14:14.738Z,2.80
2023-02-05T02:16:44.677Z,2.80
2023-02-05T02:19:21.633Z,2.90
2023-02-05T02:22:19.872Z,2.90
2023-02-05T02:25:15.614Z,2.90
2023-02-05T02:27:52.278Z,2.80
2023-02-05T02:30:28.974Z,2.70
2023-02-05T02:33:09.695Z,2.60
2023-02-05T02:35:46.451Z,2.60
2023-02-05T02:38:23.610Z,2.70
2023-02-05T02:40:57.013Z,2.80
2023-02-05T02:43:33.547Z,2.70
2023-02-05T02:46:06.945Z,2.70
2023-02-05T02:48:39.746Z,2.60
2023-02-05T02:51:11.915Z,2.60
2023-02-05T02:53:47.455Z,2.60
2023-02-05T02:56:19.264Z,2.70
2023-02-05T02:58:55.924Z,2.70
2023-02-05T03:01:28.675Z,2.70
2023-02-05T03:04:03.240Z,2.80
2023-02-05T03:06:34.512Z,2.80
2023-02-05T03:09:08.797Z,2.80
2023-02-05T03:11:38.576Z,2.70
2023-02-05T03:14:11.013Z,2.80
2023-02-05T03:16:40.844Z,2.80
2023-02-05T03:19:11.456Z,2.80
2023-02-05T03:21:45.325Z,2.80
2023-02-05T03:24:16.027Z,2.90
2023-02-05T03:26:45.887Z,2.90
2023-02-05T03:29:30.121Z,2.80
2023-02-05T03:32:14.638Z,2.80
2023-02-05T03:34:54.057Z,2.70
2023-02-05T03:37:33.967Z,2.60
2023-02-05T03:40:12.871Z,2.60
2023-02-05T03:42:53.015Z,2.50
2023-02-05T03:45:46.135Z,2.40
2023-02-05T03:48:26.097Z,2.40
2023-02-05T03:51:02.267Z,2.30
2023-02-05T03:53:40.328Z,2.30
2023-02-05T03:56:14.259Z,2.30
2023-02-05T03:58:46.633Z,2.20
2023-02-05T04:01:19.737Z,2.20
2023-02-05T04:03:49.817Z,2.20
2023-02-05T04:06:19.700Z,2.20
2023-02-05T04:08:49.511Z,2.10
2023-02-05T04:11:19.274Z,2.10
2023-02-05T04:13:49.093Z,2.20
2023-02-05T04:16:21.505Z,2.10
2023-02-05T04:18:51.304Z,2.00
2023-02-05T04:21:21.254Z,2.10
2023-02-05T04:23:51.067Z,1.90
2023-02-05T04:26:20.856Z,1.80
2023-02-05T04:28:50.617Z,1.80
2023-02-05T04:31:23.054Z,1.90
2023-02-05T04:33:52.943Z,1.90
2023-02-05T04:36:22.768Z,1.90
2023-02-05T04:38:52.531Z,2.00
2023-02-05T04:41:22.278Z,2.00
2023-02-05T04:43:52.079Z,2.10
2023-02-05T04:46:24.403Z,2.20
2023-02-05T04:48:54.220Z,2.20
2023-02-05T04:51:24.045Z,2.10
2023-02-05T04:53:53.819Z,2.20
2023-02-05T04:56:23.663Z,2.10
2023-02-05T04:58:53.519Z,2.10
2023-02-05T05:01:26.725Z,2.20
2023-02-05T05:03:56.599Z,2.10
2023-02-05T05:06:26.474Z,2.10
2023-02-05T05:08:56.824Z,2.10
2023-02-05T05:11:26.634Z,2.20
2023-02-05T05:13:56.435Z,2.20
2023-02-05T05:16:28.796Z,2.20
2023-02-05T05:18:58.578Z,2.20
2023-02-05T05:21:28.578Z,2.20
2023-02-05T05:23:58.365Z,2.30
2023-02-05T05:26:28.219Z,2.30
2023-02-05T05:28:58.888Z,2.30
2023-02-05T05:31:31.281Z,2.30
2023-02-05T05:34:01.273Z,2.30
2023-02-05T05:36:31.047Z,2.30
2023-02-05T05:39:20.875Z,2.30
2023-02-05T05:42:03.126Z,2.30
2023-02-05T05:44:32.972Z,2.30
2023-02-05T05:47:05.339Z,2.40
2023-02-05T05:49:35.283Z,2.40
2023-02-05T05:52:05.095Z,2.40
2023-02-05T05:54:34.985Z,2.40
2023-02-05T05:57:04.842Z,2.40
2023-02-05T05:59:34.652Z,2.40
2023-02-05T06:02:07.621Z,2.40
2023-02-05T06:04:37.561Z,2.40
2023-02-05T06:07:07.462Z,2.30
2023-02-05T06:09:37.207Z,2.20
2023-02-05T06:12:07.276Z,2.10
2023-02-05T06:14:39.928Z,2.10
2023-02-05T06:17:12.384Z,2.10
2023-02-05T06:19:42.196Z,2.10
2023-02-05T06:22:12.168Z,2.10
2023-02-05T06:24:41.886Z,2.00
2023-02-05T06:27:11.629Z,2.10
2023-02-05T06:29:41.395Z,2.20
2023-02-05T06:32:13.771Z,2.30
2023-02-05T06:34:43.614Z,2.30
2023-02-05T06:37:13.401Z,2.30
2023-02-05T06:39:43.219Z,2.40
2023-02-05T06:42:13.021Z,2.30
2023-02-05T06:44:42.759Z,2.30
2023-02-05T06:47:15.141Z,2.40
2023-02-05T06:49:45.000Z,2.30
2023-02-05T06:52:14.788Z,2.40
2023-02-05T06:54:44.810Z,2.40
2023-02-05T06:57:14.720Z,2.40
2023-02-05T06:59:44.507Z,2.50
2023-02-05T07:02:17.590Z,2.50
2023-02-05T07:04:47.502Z,2.50
2023-02-05T07:07:17.326Z,2.50
2023-02-05T07:09:47.419Z,2.60
2023-02-05T07:12:17.569Z,2.60
2023-02-05T07:14:47.610Z,2.60
2023-02-05T07:17:20.966Z,2.60
2023-02-05T07:19:50.801Z,2.60
2023-02-05T07:22:20.761Z,2.70
2023-02-05T07:24:50.643Z,2.70
2023-02-05T07:27:20.613Z,2.70
2023-02-05T07:29:50.355Z,2.70
2023-02-05T07:32:22.737Z,2.70
2023-02-05T07:34:52.599Z,2.80
2023-02-05T07:37:22.392Z,2.80
2023-02-05T07:39:52.175Z,2.70
2023-02-05T07:42:22.535Z,2.70
2023-02-05T07:44:52.483Z,2.70
2023-02-05T07:47:24.841Z,2.80
2023-02-05T07:49:54.712Z,2.80
2023-02-05T07:52:24.479Z,2.80
2023-02-05T07:54:54.249Z,2.80
2023-02-05T07:57:24.150Z,2.90
2023-02-05T07:59:53.897Z,2.90
2023-02-05T08:02:26.300Z,2.90
2023-02-05T08:04:56.042Z,2.90
2023-02-05T08:07:25.871Z,2.90
2023-02-05T08:09:55.675Z,2.90
2023-02-05T08:12:25.486Z,2.90
2023-02-05T08:14:55.437Z,2.90
2023-02-05T08:17:27.870Z,2.90
2023-02-05T08:19:58.333Z,3.10
2023-02-05T08:22:28.428Z,3.10
2023-02-05T08:24:58.208Z,3.10
2023-02-05T08:27:30.057Z,3.10
2023-02-05T08:29:59.888Z,3.10
2023-02-05T08:32:32.355Z,3.10
2023-02-05T08:35:02.131Z,3.20
2023-02-05T08:37:31.939Z,3.30
2023-02-05T08:40:01.790Z,3.30
2023-02-05T08:42:31.550Z,3.40
2023-02-05T08:45:01.346Z,3.40
2023-02-05T08:47:33.785Z,3.30
2023-02-05T08:50:03.663Z,3.30
2023-02-05T08:52:33.863Z,3.40
2023-02-05T08:55:04.354Z,3.40
2023-02-05T08:57:34.580Z,3.50
2023-02-05T09:00:04.653Z,3.50
2023-02-05T09:02:37.288Z,3.50
2023-02-05T09:05:09.215Z,3.60
2023-02-05T09:07:39.947Z,3.50
2023-02-05T09:10:11.985Z,3.50
2023-02-05T09:12:41.875Z,3.50
2023-02-05T09:15:12.823Z,3.50
2023-02-05T09:17:45.458Z,3.50
2023-02-05T09:20:15.756Z,3.40
2023-02-05T09:22:45.792Z,3.40
2023-02-05T09:25:15.527Z,3.40
2023-02-05T09:27:45.520Z,3.40
2023-02-05T09:30:16.796Z,3.40
2023-02-05T09:32:49.140Z,3.30
2023-02-05T09:35:19.094Z,3.30
2023-02-05T09:37:48.898Z,3.30
2023-02-05T09:40:23.098Z,3.40
2023-02-05T09:43:02.736Z,3.40
2023-02-05T09:45:41.850Z,3.40
2023-02-05T09:48:37.051Z,3.40
2023-02-05T09:51:10.228Z,3.40
2023-02-05T09:53:45.517Z,3.40
2023-02-05T09:56:17.189Z,3.40
2023-02-05T09:58:50.118Z,3.40
2023-02-05T10:01:25.541Z,3.50
2023-02-05T10:04:01.329Z,3.50
2023-02-05T10:06:57.870Z,3.50
2023-02-05T10:09:46.654Z,3.50
2023-02-05T10:12:29.570Z,3.50
2023-02-05T10:15:14.080Z,3.50
2023-02-05T10:17:57.217Z,3.50
2023-02-05T10:20:49.591Z,3.50
2023-02-05T10:23:42.712Z,3.60
2023-02-05T10:26:14.472Z,3.60
2023-02-05T10:29:03.662Z,3.60
2023-02-05T10:31:44.317Z,3.60
2023-02-05T10:34:37.646Z,3.70
2023-02-05T10:37:17.358Z,3.70
2023-02-05T10:39:47.448Z,3.70
2023-02-05T10:42:30.306Z,3.80
2023-02-05T10:45:09.086Z,3.70
2023-02-05T10:47:52.488Z,3.70
2023-02-05T10:50:28.184Z,3.70
2023-02-05T10:53:00.633Z,3.60
2023-02-05T10:55:31.230Z,3.80
2023-02-05T10:58:01.033Z,3.80
2023-02-05T11:00:30.853Z,3.70
2023-02-05T11:03:01.624Z,3.70
2023-02-05T11:05:38.637Z,3.80
2023-02-05T11:08:34.744Z,3.90
2023-02-05T11:11:05.393Z,3.80
2023-02-05T11:13:38.072Z,3.90
2023-02-05T11:16:11.010Z,4.00
2023-02-05T11:18:45.898Z,4.00
2023-02-05T11:21:16.255Z,4.10
2023-02-05T11:23:58.641Z,4.10
2023-02-05T11:26:30.237Z,4.20
2023-02-05T11:29:00.739Z,4.20
2023-02-05T11:31:36.518Z,4.30
2023-02-05T11:34:20.543Z,4.20
2023-02-05T11:36:53.372Z,4.30
2023-02-05T11:39:40.903Z,4.30
2023-02-05T11:42:12.983Z,4.30
2023-02-05T11:44:51.991Z,4.30
2023-02-05T11:47:27.926Z,4.40
2023-02-05T11:49:59.522Z,4.40
2023-02-05T11:52:32.419Z,4.40
2023-02-05T11:55:04.912Z,4.50
2023-02-05T11:57:38.897Z,4.50
2023-02-05T12:00:24.057Z,4.50
2023-02-05T12:03:07.108Z,4.60
2023-02-05T12:05:41.515Z,4.60
2023-02-05T12:08:16.452Z,4.50
2023-02-05T12:10:54.847Z,4.40
2023-02-05T12:13:30.532Z,4.30
2023-02-05T12:16:08.555Z,4.30
2023-02-05T12:18:54.923Z,4.30
2023-02-05T12:21:35.971Z,4.30
2023-02-05T12:24:21.876Z,4.20
2023-02-05T12:27:00.254Z,4.20
2023-02-05T12:29:49.122Z,4.20
2023-02-05T12:32:30.367Z,4.10
2023-02-05T12:35:13.269Z,4.20
2023-02-05T12:37:51.127Z,4.20
2023-02-05T12:40:39.538Z,4.20
2023-02-05T12:43:24.296Z,4.20
2023-02-05T12:46:03.708Z,4.20
2023-02-05T12:48:57.337Z,4.10
2023-02-05T12:51:39.725Z,4.10
2023-02-05T12:54:27.741Z,4.20
2023-02-05T12:57:01.774Z,4.30
2023-02-05T12:59:41.474Z,4.30
2023-02-05T13:02:22.466Z,4.30
2023-02-05T13:04:58.851Z,4.30
2023-02-05T13:07:36.226Z,4.30
2023-02-05T13:10:09.125Z,4.30
2023-02-05T13:12:43.239Z,4.20
2023-02-05T13:15:22.414Z,4.30
2023-02-05T13:18:02.110Z,4.30
2023-02-05T13:20:50.832Z,4.30
2023-02-05T13:23:34.218Z,4.30
2023-02-05T13:26:19.063Z,4.30
2023-02-05T13:28:53.071Z,4.30
2023-02-05T13:31:31.035Z,4.30
2023-02-05T13:34:06.786Z,4.30
2023-02-05T13:37:11.120Z,4.30
2023-02-05T13:40:12.214Z,4.20
2023-02-05T13:42:57.392Z,4.20
2023-02-05T13:45:52.223Z,4.20
2023-02-05T13:48:42.610Z,4.10
2023-02-05T13:51:33.473Z,4.00
2023-02-05T13:54:21.570Z,4.10
2023-02-05T13:57:04.404Z,4.00
2023-02-05T13:59:39.725Z,4.10
2023-02-05T14:02:32.127Z,4.10
2023-02-05T14:05:05.775Z,4.00
2023-02-05T14:07:37.892Z,3.90
2023-02-05T14:10:09.684Z,3.90
2023-02-05T14:12:41.196Z,3.90
2023-02-05T14:15:37.938Z,3.90
2023-02-05T14:18:08.707Z,3.80
2023-02-05T14:20:45.717Z,3.80
2023-02-05T14:23:17.890Z,3.80
2023-02-05T14:26:11.554Z,3.80
2023-02-05T14:28:52.877Z,3.70
2023-02-05T14:31:51.457Z,3.80
2023-02-05T14:34:52.935Z,3.80
2023-02-05T14:37:44.601Z,3.80
2023-02-05T14:40:27.572Z,3.70
2023-02-05T14:43:09.907Z,3.60
2023-02-05T14:45:46.888Z,3.70
2023-02-05T14:48:24.275Z,3.60
2023-02-05T14:51:09.009Z,3.70
2023-02-05T14:53:41.692Z,3.70
2023-02-05T14:56:25.828Z,3.60
2023-02-05T14:59:05.220Z,3.60
2023-02-05T15:01:50.379Z,3.60
2023-02-05T15:04:45.222Z,3.60
2023-02-05T15:07:19.612Z,3.60
2023-02-05T15:10:00.131Z,3.70
2023-02-05T15:12:58.314Z,3.60
2023-02-05T15:15:35.875Z,3.60
2023-02-05T15:18:11.906Z,3.60
2023-02-05T15:20:43.045Z,3.60
2023-02-05T15:23:35.132Z,3.60
2023-02-05T15:26:09.966Z,3.60
2023-02-05T15:28:44.619Z,3.60
2023-02-05T15:31:29.410Z,3.70
2023-02-05T15:34:05.218Z,3.50
2023-02-05T15:36:39.303Z,3.60
2023-02-05T15:39:19.812Z,3.60
2023-02-05T15:41:53.864Z,3.60
2023-02-05T15:44:29.443Z,3.50
2023-02-05T15:47:01.698Z,3.50
2023-02-05T15:49:37.398Z,3.40
2023-02-05T15:52:08.727Z,3.50
2023-02-05T15:54:39.724Z,3.50
2023-02-05T15:57:22.203Z,3.40
2023-02-05T15:59:53.052Z,3.50
2023-02-05T16:02:26.162Z,3.50
2023-02-05T16:04:58.414Z,3.50
2023-02-05T16:07:30.433Z,3.40
2023-02-05T16:10:01.742Z,3.40
2023-02-05T16:12:34.179Z,3.40
2023-02-05T16:15:05.634Z,3.40
2023-02-05T16:17:41.189Z,3.40
2023-02-05T16:20:21.474Z,3.40
2023-02-05T16:22:55.572Z,3.40
2023-02-05T16:25:39.839Z,3.40
2023-02-05T16:28:19.599Z,3.40
2023-02-05T16:30:52.605Z,3.50
2023-02-05T16:33:32.379Z,3.40
2023-02-05T16:36:05.084Z,3.50
2023-02-05T16:38:35.410Z,3.50
2023-02-05T16:41:23.178Z,3.50
2023-02-05T16:43:57.164Z,3.50
2023-02-05T16:46:29.742Z,3.50
2023-02-05T16:49:02.284Z,3.50
2023-02-05T16:51:35.527Z,3.50
2023-02-05T16:54:22.447Z,3.50
2023-02-05T16:56:57.451Z,3.50
2023-02-05T16:59:34.742Z,3.50
2023-02-05T17:02:05.931Z,3.60
2023-02-05T17:04:38.816Z,3.50
2023-02-05T17:07:20.098Z,3.50
2023-02-05T17:09:50.248Z,3.60
2023-02-05T17:12:57.808Z,3.60
2023-02-05T17:15:34.267Z,3.60
2023-02-05T17:18:19.697Z,3.60
2023-02-05T17:20:51.015Z,3.60
2023-02-05T17:23:21.028Z,3.60
2023-02-05T17:25:56.932Z,3.60
2023-02-05T17:28:29.885Z,3.60
2023-02-05T17:31:02.360Z,3.60
2023-02-05T17:33:32.366Z,3.50
2023-02-05T17:36:02.217Z,3.50
2023-02-05T17:38:32.048Z,3.50
2023-02-05T17:41:14.306Z,3.50
2023-02-05T17:43:44.453Z,3.50
2023-02-05T17:46:17.801Z,3.60
2023-02-05T17:48:47.630Z,3.50
2023-02-05T17:51:22.731Z,3.50
2023-02-05T17:53:54.358Z,3.50
2023-02-05T17:56:25.295Z,3.50
2023-02-05T17:58:55.928Z,3.50
2023-02-05T18:01:28.345Z,3.50
2023-02-05T18:03:58.104Z,3.40
2023-02-05T18:06:27.881Z,3.40
2023-02-05T18:08:57.686Z,3.30
2023-02-05T18:11:27.479Z,3.30
2023-02-05T18:13:57.292Z,3.30
2023-02-05T18:16:30.307Z,3.30
2023-02-05T18:19:00.324Z,3.20
2023-02-05T18:21:30.235Z,3.20
2023-02-05T18:24:00.036Z,3.10
2023-02-05T18:26:29.870Z,3.20
2023-02-05T18:28:59.879Z,3.20
2023-02-05T18:31:32.961Z,3.10
2023-02-05T18:34:03.078Z,3.10
2023-02-05T18:36:32.875Z,3.10
2023-02-05T18:39:03.391Z,3.10
2023-02-05T18:41:33.443Z,3.00
2023-02-05T18:44:03.291Z,3.00
2023-02-05T18:46:35.730Z,3.00
2023-02-05T18:49:05.534Z,3.00
2023-02-05T18:51:35.327Z,3.00
2023-02-05T18:54:06.631Z,3.00
2023-02-05T18:56:37.121Z,3.00
2023-02-05T18:59:09.597Z,2.90
2023-02-05T19:01:42.747Z,2.90
2023-02-05T19:04:14.162Z,2.90
2023-02-05T19:06:44.304Z,2.80
2023-02-05T19:09:14.696Z,2.80
2023-02-05T19:11:45.865Z,2.80
2023-02-05T19:14:19.102Z,2.70
2023-02-05T19:16:52.404Z,2.70
2023-02-05T19:19:25.012Z,2.70
2023-02-05T19:21:57.588Z,2.70
2023-02-05T19:24:27.382Z,2.70
2023-02-05T19:26:59.112Z,2.70
2023-02-05T19:29:29.510Z,2.70
2023-02-05T19:32:05.298Z,2.60
2023-02-05T19:34:35.371Z,2.50
2023-02-05T19:37:05.295Z,2.50
2023-02-05T19:39:35.241Z,2.50
2023-02-05T19:42:05.128Z,2.50
2023-02-05T19:44:34.959Z,2.50
2023-02-05T19:47:08.526Z,2.40
2023-02-05T19:49:38.331Z,2.40
2023-02-05T19:52:09.617Z,2.30
2023-02-05T19:54:39.437Z,2.30
2023-02-05T19:57:09.305Z,2.30
2023-02-05T19:59:39.047Z,2.30
2023-02-05T20:02:12.583Z,2.20
2023-02-05T20:04:43.613Z,2.30
2023-02-05T20:07:13.383Z,2.20
2023-02-05T20:09:43.144Z,2.10
2023-02-05T20:12:13.178Z,2.20
2023-02-05T20:14:42.963Z,2.20
2023-02-05T20:17:16.460Z,2.20
2023-02-05T20:19:46.289Z,2.10
2023-02-05T20:22:16.118Z,2.10
2023-02-05T20:24:45.894Z,2.20
2023-02-05T20:27:15.744Z,2.10
2023-02-05T20:30:06.934Z,2.10
2023-02-05T20:32:39.296Z,2.10
2023-02-05T20:35:10.115Z,2.10
2023-02-05T20:37:39.907Z,2.10
2023-02-05T20:40:10.867Z,2.10
2023-02-05T20:42:40.614Z,2.00
2023-02-05T20:45:11.419Z,2.00
2023-02-05T20:47:43.782Z,2.00
2023-02-05T20:50:13.658Z,2.10
2023-02-05T20:52:43.393Z,2.00
2023-02-05T20:55:13.946Z,2.00
2023-02-05T20:57:45.024Z,2.10
2023-02-05T21:00:17.642Z,2.00
2023-02-05T21:02:49.967Z,2.00
2023-02-05T21:05:19.867Z,2.10
2023-02-05T21:07:49.760Z,2.00
2023-02-05T21:10:22.205Z,2.00
2023-02-05T21:12:52.099Z,2.00
2023-02-05T21:15:21.910Z,2.10
2023-02-05T21:17:54.274Z,2.10
2023-02-05T21:20:23.983Z,2.10
2023-02-05T21:22:53.915Z,2.00
2023-02-05T21:25:23.640Z,2.00
2023-02-05T21:27:53.437Z,2.00
2023-02-05T21:30:23.450Z,2.00
2023-02-05T21:32:57.551Z,2.00
2023-02-05T21:35:27.507Z,1.90
2023-02-05T21:37:57.298Z,2.00
2023-02-05T21:40:27.069Z,1.90
2023-02-05T21:42:56.821Z,1.90
2023-02-05T21:45:26.628Z,1.90
2023-02-05T21:47:59.042Z,1.90
2023-02-05T21:50:28.811Z,1.90
2023-02-05T21:52:58.684Z,1.80
2023-02-05T21:55:28.403Z,1.90
2023-02-05T21:57:58.201Z,1.90
2023-02-05T22:00:27.945Z,1.90
2023-02-05T22:03:00.613Z,1.90
2023-02-05T22:05:30.367Z,1.90
2023-02-05T22:08:00.107Z,1.80
2023-02-05T22:10:29.927Z,1.90
2023-02-05T22:12:59.837Z,1.80
2023-02-05T22:15:29.627Z,1.80
2023-02-05T22:18:02.126Z,1.80
2023-02-05T22:20:31.988Z,1.80
2023-02-05T22:23:01.788Z,1.80
2023-02-05T22:25:31.639Z,1.90
2023-02-05T22:28:01.430Z,1.90
2023-02-05T22:30:31.222Z,2.00
2023-02-05T22:33:03.553Z,1.90
2023-02-05T22:35:34.034Z,1.90
2023-02-05T22:38:04.732Z,1.90
2023-02-05T22:40:35.520Z,1.90
2023-02-05T22:43:05.255Z,2.00
2023-02-05T22:45:35.327Z,2.00
2023-02-05T22:48:08.344Z,1.90
2023-02-05T22:50:41.587Z,2.00
2023-02-05T22:53:12.240Z,2.00
2023-02-05T22:55:43.160Z,1.90
2023-02-05T22:58:13.012Z,1.90
2023-02-05T23:00:42.775Z,1.90
2023-02-05T23:03:15.198Z,1.90
2023-02-05T23:05:45.128Z,1.90
2023-02-05T23:08:15.238Z,1.90
2023-02-05T23:10:45.317Z,1.80
2023-02-05T23:13:15.227Z,1.90
2023-02-05T23:15:45.002Z,1.90
2023-02-05T23:18:17.329Z,1.90
2023-02-05T23:20:47.062Z,1.80
2023-02-05T23:23:17.332Z,1.90
2023-02-05T23:25:49.857Z,1.80
2023-02-05T23:28:19.807Z,1.80
2023-02-05T23:30:49.781Z,1.80
2023-02-05T23:33:22.217Z,1.80
2023-02-05T23:35:52.058Z,1.80
2023-02-05T23:38:25.005Z,1.80
2023-02-05T23:40:55.022Z,1.80
2023-02-05T23:43:25.114Z,1.80
2023-02-05T23:45:56.300Z,1.80
2023-02-05T23:48:28.855Z,1.80
2023-02-05T23:50:59.602Z,1.80
2023-02-05T23:53:29.475Z,1.80
2023-02-05T23:55:59.287Z,1.80
2023-02-05T23:58:29.363Z,1.80
